sensor_id;sensor_type;location;lat;lon;timestamp;pressure;altitude;pressure_sealevel;temperature;humidity
68628;BME280;55611;48.602;9.490;2022-10-16T00:02:24;96780;;;20.2;65
68628;BME280;55611;48.602;9.490;2022-10-16T00:04:55;96780;;;20.2;65
68628;BME280;55611;48.602;9.490;2022-10-16T00:07:25;96780;;;20.2;65
68628;BME280;55611;48.602;9.490;2022-10-16T00:09:56;96780;;;20.2;65
68628;BME280;55611;48.602;9.490;2022-10-16T00:12:26;96770;;;20.2;65
68628;BME280;55611;48.602;9.490;2022-10-16T00:14:57;96770;;;20.1;65
68628;BME280;55611;48.602;9.490;2022-10-16T00:17:27;96770;;;20.1;65
68628;BME280;55611;48.602;9.490;2022-10-16T00:19:58;96770;;;20.1;65
68628;BME280;55611;48.602;9.490;2022-10-16T00:22:28;96770;;;20.1;65
68628;BME280;55611;48.602;9.490;2022-10-16T00:24:59;96760;;;20;64.5
68628;BME280;55611;48.602;9.490;2022-10-16T00:27:29;96760;;;20;64.5
68628;BME280;55611;48.602;9.490;2022-10-16T00:32:30;96770;;;20;65
68628;BME280;55611;48.602;9.490;2022-10-16T00:35:01;96770;;;20;65
68628;BME280;55611;48.602;9.490;2022-10-16T00:37:31;96770;;;20;65
68628;BME280;55611;48.602;9.490;2022-10-16T00:40:02;96780;;;20;64.5
68628;BME280;55611;48.602;9.490;2022-10-16T00:42:32;96800;;;20;64.5
68628;BME280;55611;48.602;9.490;2022-10-16T00:45:03;96800;;;19.9;64.5
68628;BME280;55611;48.602;9.490;2022-10-16T00:47:34;96800;;;19.9;64.5
68628;BME280;55611;48.602;9.490;2022-10-16T00:50:27;96790;;;19.9;65
68628;BME280;55611;48.602;9.490;2022-10-16T00:52:35;96790;;;19.9;65
68628;BME280;55611;48.602;9.490;2022-10-16T00:55:05;96790;;;19.9;65
68628;BME280;55611;48.602;9.490;2022-10-16T00:57:36;96790;;;19.9;65
68628;BME280;55611;48.602;9.490;2022-10-16T01:00:07;96790;;;19.9;65
68628;BME280;55611;48.602;9.490;2022-10-16T01:02:37;96790;;;19.9;64.5
68628;BME280;55611;48.602;9.490;2022-10-16T01:05:07;96790;;;19.9;65
68628;BME280;55611;48.602;9.490;2022-10-16T01:07:44;96790;;;19.9;65
68628;BME280;55611;48.602;9.490;2022-10-16T01:10:27;96780;;;19.9;65
68628;BME280;55611;48.602;9.490;2022-10-16T01:12:41;96780;;;19.9;64.5
68628;BME280;55611;48.602;9.490;2022-10-16T01:15:42;96790;;;19.9;65
68628;BME280;55611;48.602;9.490;2022-10-16T01:17:43;96790;;;19.9;64.5
68628;BME280;55611;48.602;9.490;2022-10-16T01:20:14;96790;;;19.9;64.5
68628;BME280;55611;48.602;9.490;2022-10-16T01:22:44;96800;;;19.9;64.5
68628;BME280;55611;48.602;9.490;2022-10-16T01:25:14;96800;;;19.9;64.5
68628;BME280;55611;48.602;9.490;2022-10-16T01:27:42;96800;;;20;64.5
68628;BME280;55611;48.602;9.490;2022-10-16T01:30:13;96800;;;20;64.5
68628;BME280;55611;48.602;9.490;2022-10-16T01:32:52;96800;;;20;65
68628;BME280;55611;48.602;9.490;2022-10-16T01:35:14;96800;;;20;65
68628;BME280;55611;48.602;9.490;2022-10-16T01:37:46;96800;;;20;65
68628;BME280;55611;48.602;9.490;2022-10-16T01:40:15;96800;;;20;65
68628;BME280;55611;48.602;9.490;2022-10-16T01:42:47;96800;;;20;64.5
68628;BME280;55611;48.602;9.490;2022-10-16T01:45:15;96790;;;20.1;64.5
68628;BME280;55611;48.602;9.490;2022-10-16T01:47:46;96790;;;20.1;65
68628;BME280;55611;48.602;9.490;2022-10-16T01:50:17;96790;;;20;64.5
68628;BME280;55611;48.602;9.490;2022-10-16T01:52:48;96790;;;20.1;64.5
68628;BME280;55611;48.602;9.490;2022-10-16T01:55:19;96790;;;20.1;64.5
68628;BME280;55611;48.602;9.490;2022-10-16T01:57:48;96790;;;20.1;64.5
68628;BME280;55611;48.602;9.490;2022-10-16T02:00:19;96790;;;20.1;64.5
68628;BME280;55611;48.602;9.490;2022-10-16T02:02:49;96780;;;20.2;64.5
68628;BME280;55611;48.602;9.490;2022-10-16T02:05:21;96780;;;20.2;65
68628;BME280;55611;48.602;9.490;2022-10-16T02:07:50;96780;;;20.2;65
68628;BME280;55611;48.602;9.490;2022-10-16T02:10:21;96780;;;20.2;64.5
68628;BME280;55611;48.602;9.490;2022-10-16T02:12:55;96780;;;20.2;64.5
68628;BME280;55611;48.602;9.490;2022-10-16T02:15:21;96780;;;20.2;64.5
68628;BME280;55611;48.602;9.490;2022-10-16T02:17:52;96790;;;20.2;64.5
68628;BME280;55611;48.602;9.490;2022-10-16T02:20:25;96780;;;20.2;64.5
68628;BME280;55611;48.602;9.490;2022-10-16T02:25:25;96790;;;20.3;65
68628;BME280;55611;48.602;9.490;2022-10-16T02:27:59;96790;;;20.3;65
68628;BME280;55611;48.602;9.490;2022-10-16T02:30:27;96780;;;20.4;65
68628;BME280;55611;48.602;9.490;2022-10-16T02:32:55;96780;;;20.4;64.5
68628;BME280;55611;48.602;9.490;2022-10-16T02:35:26;96780;;;20.4;64.5
68628;BME280;55611;48.602;9.490;2022-10-16T02:37:56;96780;;;20.4;64.5
68628;BME280;55611;48.602;9.490;2022-10-16T02:40:27;96790;;;20.4;64.5
68628;BME280;55611;48.602;9.490;2022-10-16T02:42:57;96790;;;20.4;64.5
68628;BME280;55611;48.602;9.490;2022-10-16T02:45:28;96780;;;20.3;64.5
68628;BME280;55611;48.602;9.490;2022-10-16T02:47:58;96790;;;20.4;64.5
68628;BME280;55611;48.602;9.490;2022-10-16T02:50:29;96780;;;20.3;64.5
68628;BME280;55611;48.602;9.490;2022-10-16T02:52:59;96780;;;20.3;64.5
68628;BME280;55611;48.602;9.490;2022-10-16T02:55:30;96780;;;20.2;64.5
68628;BME280;55611;48.602;9.490;2022-10-16T02:58:00;96780;;;20.1;64.5
68628;BME280;55611;48.602;9.490;2022-10-16T03:00:33;96780;;;20.1;65
68628;BME280;55611;48.602;9.490;2022-10-16T03:03:01;96790;;;20.1;65
68628;BME280;55611;48.602;9.490;2022-10-16T03:05:32;96790;;;20.1;65
68628;BME280;55611;48.602;9.490;2022-10-16T03:08:02;96790;;;20.2;65
68628;BME280;55611;48.602;9.490;2022-10-16T03:10:33;96790;;;20.2;64.5
68628;BME280;55611;48.602;9.490;2022-10-16T03:13:03;96790;;;20.1;64.5
68628;BME280;55611;48.602;9.490;2022-10-16T03:15:34;96790;;;20.1;64.5
68628;BME280;55611;48.602;9.490;2022-10-16T03:18:04;96790;;;20.1;64.5
68628;BME280;55611;48.602;9.490;2022-10-16T03:20:35;96790;;;20.2;64.5
68628;BME280;55611;48.602;9.490;2022-10-16T03:23:06;96790;;;20.2;64.5
68628;BME280;55611;48.602;9.490;2022-10-16T03:25:36;96790;;;20.3;64.5
68628;BME280;55611;48.602;9.490;2022-10-16T03:28:06;96780;;;20.2;64.5
68628;BME280;55611;48.602;9.490;2022-10-16T03:30:37;96780;;;20.2;64.5
68628;BME280;55611;48.602;9.490;2022-10-16T03:33:07;96780;;;20.2;64.5
68628;BME280;55611;48.602;9.490;2022-10-16T03:35:38;96780;;;20.1;64.5
68628;BME280;55611;48.602;9.490;2022-10-16T03:38:08;96790;;;20.1;64.5
68628;BME280;55611;48.602;9.490;2022-10-16T03:40:39;96770;;;20.1;64.5
68628;BME280;55611;48.602;9.490;2022-10-16T03:43:10;96760;;;20.1;64.5
68628;BME280;55611;48.602;9.490;2022-10-16T03:45:40;96780;;;20.1;64.5
68628;BME280;55611;48.602;9.490;2022-10-16T03:48:11;96790;;;20.2;64.5
68628;BME280;55611;48.602;9.490;2022-10-16T03:50:41;96790;;;20.2;64.5
68628;BME280;55611;48.602;9.490;2022-10-16T03:53:12;96790;;;20.2;64.5
68628;BME280;55611;48.602;9.490;2022-10-16T03:55:42;96790;;;20.3;64.5
68628;BME280;55611;48.602;9.490;2022-10-16T03:58:13;96790;;;20.2;64.5
68628;BME280;55611;48.602;9.490;2022-10-16T04:00:44;96790;;;20.2;64.5
68628;BME280;55611;48.602;9.490;2022-10-16T04:03:14;96790;;;20.2;64.5
68628;BME280;55611;48.602;9.490;2022-10-16T04:05:44;96790;;;20.2;64.5
68628;BME280;55611;48.602;9.490;2022-10-16T04:08:15;96790;;;20.1;64.5
68628;BME280;55611;48.602;9.490;2022-10-16T04:10:45;96800;;;20.1;64.5
68628;BME280;55611;48.602;9.490;2022-10-16T04:13:16;96790;;;20.2;64.5
68628;BME280;55611;48.602;9.490;2022-10-16T04:15:46;96800;;;20.2;64.5
68628;BME280;55611;48.602;9.490;2022-10-16T04:18:17;96800;;;20.2;64.5
68628;BME280;55611;48.602;9.490;2022-10-16T04:20:47;96810;;;20.2;64.5
68628;BME280;55611;48.602;9.490;2022-10-16T04:23:18;96810;;;20.2;64.5
68628;BME280;55611;48.602;9.490;2022-10-16T04:25:48;96810;;;20.2;64.5
68628;BME280;55611;48.602;9.490;2022-10-16T04:28:19;96810;;;20.2;64.5
68628;BME280;55611;48.602;9.490;2022-10-16T04:30:49;96810;;;20.2;64.5
68628;BME280;55611;48.602;9.490;2022-10-16T04:33:20;96810;;;20.2;64.5
68628;BME280;55611;48.602;9.490;2022-10-16T04:35:58;96810;;;20.3;64.5
68628;BME280;55611;48.602;9.490;2022-10-16T04:38:21;96810;;;20.3;64.5
68628;BME280;55611;48.602;9.490;2022-10-16T04:40:52;96810;;;20.3;64.5
68628;BME280;55611;48.602;9.490;2022-10-16T04:43:22;96810;;;20.3;64.5
68628;BME280;55611;48.602;9.490;2022-10-16T04:45:52;96810;;;20.3;64.5
68628;BME280;55611;48.602;9.490;2022-10-16T04:48:23;96800;;;20.3;64.5
68628;BME280;55611;48.602;9.490;2022-10-16T04:50:53;96810;;;20.3;64.5
68628;BME280;55611;48.602;9.490;2022-10-16T04:53:24;96810;;;20.3;64.5
68628;BME280;55611;48.602;9.490;2022-10-16T04:58:25;96810;;;20.3;64.5
68628;BME280;55611;48.602;9.490;2022-10-16T05:00:55;96810;;;20.3;64.5
68628;BME280;55611;48.602;9.490;2022-10-16T05:03:26;96810;;;20.3;64.5
68628;BME280;55611;48.602;9.490;2022-10-16T05:05:57;96810;;;20.3;64.5
68628;BME280;55611;48.602;9.490;2022-10-16T05:08:27;96820;;;20.4;64.5
68628;BME280;55611;48.602;9.490;2022-10-16T05:10:58;96820;;;20.4;64.5
68628;BME280;55611;48.602;9.490;2022-10-16T05:13:28;96820;;;20.5;64.5
68628;BME280;55611;48.602;9.490;2022-10-16T05:15:59;96820;;;20.5;64.5
68628;BME280;55611;48.602;9.490;2022-10-16T05:18:29;96820;;;20.5;64.5
68628;BME280;55611;48.602;9.490;2022-10-16T05:21:00;96820;;;20.4;64.5
68628;BME280;55611;48.602;9.490;2022-10-16T05:23:30;96830;;;20.5;64.5
68628;BME280;55611;48.602;9.490;2022-10-16T05:26:01;96830;;;20.5;64.5
68628;BME280;55611;48.602;9.490;2022-10-16T05:28:31;96830;;;20.5;64.5
68628;BME280;55611;48.602;9.490;2022-10-16T05:31:05;96840;;;20.6;64.5
68628;BME280;55611;48.602;9.490;2022-10-16T05:33:32;96840;;;20.6;64.5
68628;BME280;55611;48.602;9.490;2022-10-16T05:36:05;96830;;;20.6;64.5
68628;BME280;55611;48.602;9.490;2022-10-16T05:38:34;96830;;;20.6;64.5
68628;BME280;55611;48.602;9.490;2022-10-16T05:41:04;96830;;;20.6;64.5
68628;BME280;55611;48.602;9.490;2022-10-16T05:43:34;96840;;;20.7;64.5
68628;BME280;55611;48.602;9.490;2022-10-16T05:46:05;96840;;;20.6;64.5
68628;BME280;55611;48.602;9.490;2022-10-16T05:48:35;96840;;;20.6;64.5
68628;BME280;55611;48.602;9.490;2022-10-16T05:51:06;96840;;;20.6;64.5
68628;BME280;55611;48.602;9.490;2022-10-16T05:53:37;96850;;;20.7;64.5
68628;BME280;55611;48.602;9.490;2022-10-16T05:58:38;96850;;;20.6;64
68628;BME280;55611;48.602;9.490;2022-10-16T06:01:10;96850;;;20.6;64
68628;BME280;55611;48.602;9.490;2022-10-16T06:03:38;96850;;;20.7;64
68628;BME280;55611;48.602;9.490;2022-10-16T06:06:10;96850;;;20.7;64
68628;BME280;55611;48.602;9.490;2022-10-16T06:08:40;96860;;;20.6;64
68628;BME280;55611;48.602;9.490;2022-10-16T06:11:11;96860;;;20.6;64
68628;BME280;55611;48.602;9.490;2022-10-16T06:13:40;96860;;;20.6;64.5
68628;BME280;55611;48.602;9.490;2022-10-16T06:16:11;96860;;;20.7;64.5
68628;BME280;55611;48.602;9.490;2022-10-16T06:18:41;96860;;;20.7;64.5
68628;BME280;55611;48.602;9.490;2022-10-16T06:21:14;96870;;;20.7;64.5
68628;BME280;55611;48.602;9.490;2022-10-16T06:23:43;96870;;;20.7;64.5
68628;BME280;55611;48.602;9.490;2022-10-16T06:26:15;96880;;;20.8;64.5
68628;BME280;55611;48.602;9.490;2022-10-16T06:28:44;96880;;;20.7;64.5
68628;BME280;55611;48.602;9.490;2022-10-16T06:31:15;96890;;;20.8;64.5
68628;BME280;55611;48.602;9.490;2022-10-16T06:33:45;96890;;;20.8;64.5
68628;BME280;55611;48.602;9.490;2022-10-16T06:36:16;96890;;;20.8;64.5
68628;BME280;55611;48.602;9.490;2022-10-16T06:38:46;96900;;;20.9;64.5
68628;BME280;55611;48.602;9.490;2022-10-16T06:41:17;96900;;;20.9;64.5
68628;BME280;55611;48.602;9.490;2022-10-16T06:43:47;96900;;;20.8;64
68628;BME280;55611;48.602;9.490;2022-10-16T06:46:18;96900;;;20.8;64
68628;BME280;55611;48.602;9.490;2022-10-16T06:48:48;96900;;;20.8;64.5
68628;BME280;55611;48.602;9.490;2022-10-16T06:51:19;96900;;;20.8;64.5
68628;BME280;55611;48.602;9.490;2022-10-16T06:53:50;96900;;;20.8;64
68628;BME280;55611;48.602;9.490;2022-10-16T06:56:21;96910;;;20.8;64.5
68628;BME280;55611;48.602;9.490;2022-10-16T06:58:50;96910;;;20.8;64.5
68628;BME280;55611;48.602;9.490;2022-10-16T07:01:21;96920;;;20.8;64.5
68628;BME280;55611;48.602;9.490;2022-10-16T07:03:51;96920;;;20.8;64.5
68628;BME280;55611;48.602;9.490;2022-10-16T07:06:22;96930;;;20.9;64.5
68628;BME280;55611;48.602;9.490;2022-10-16T07:08:52;96920;;;20.9;64.5
68628;BME280;55611;48.602;9.490;2022-10-16T07:11:23;96920;;;21;64.5
68628;BME280;55611;48.602;9.490;2022-10-16T07:13:53;96920;;;21;64.5
68628;BME280;55611;48.602;9.490;2022-10-16T07:16:24;96920;;;21.1;64.5
68628;BME280;55611;48.602;9.490;2022-10-16T07:18:54;96930;;;21;64.5
68628;BME280;55611;48.602;9.490;2022-10-16T07:21:25;96930;;;21;64.5
68628;BME280;55611;48.602;9.490;2022-10-16T07:23:56;96940;;;21;64.5
68628;BME280;55611;48.602;9.490;2022-10-16T07:26:26;96940;;;21.1;64.5
68628;BME280;55611;48.602;9.490;2022-10-16T07:28:56;96950;;;21.1;64.5
68628;BME280;55611;48.602;9.490;2022-10-16T07:31:27;96950;;;21.1;64.5
68628;BME280;55611;48.602;9.490;2022-10-16T07:33:58;96950;;;21.2;64.5
68628;BME280;55611;48.602;9.490;2022-10-16T07:36:27;96950;;;21.2;64.5
68628;BME280;55611;48.602;9.490;2022-10-16T07:38:58;96960;;;21.2;64.5
68628;BME280;55611;48.602;9.490;2022-10-16T07:41:29;96960;;;21.2;64.5
68628;BME280;55611;48.602;9.490;2022-10-16T07:43:59;96960;;;21.2;64.5
68628;BME280;55611;48.602;9.490;2022-10-16T07:46:29;96970;;;21.2;64.5
68628;BME280;55611;48.602;9.490;2022-10-16T07:49:00;96970;;;21.2;64.5
68628;BME280;55611;48.602;9.490;2022-10-16T07:51:31;96970;;;21.2;64.5
68628;BME280;55611;48.602;9.490;2022-10-16T07:54:01;96980;;;21.2;64.5
68628;BME280;55611;48.602;9.490;2022-10-16T07:56:32;96990;;;21.3;64.5
68628;BME280;55611;48.602;9.490;2022-10-16T07:59:02;96990;;;21.3;64.5
68628;BME280;55611;48.602;9.490;2022-10-16T08:01:33;97000;;;21.3;64.5
68628;BME280;55611;48.602;9.490;2022-10-16T08:04:03;97000;;;21.3;64.5
68628;BME280;55611;48.602;9.490;2022-10-16T08:06:35;97000;;;21.4;64.5
68628;BME280;55611;48.602;9.490;2022-10-16T08:09:05;97000;;;21.5;64
68628;BME280;55611;48.602;9.490;2022-10-16T08:11:35;97000;;;21.5;64
68628;BME280;55611;48.602;9.490;2022-10-16T08:14:05;97000;;;21.4;64
68628;BME280;55611;48.602;9.490;2022-10-16T08:16:36;97010;;;21.4;64
68628;BME280;55611;48.602;9.490;2022-10-16T08:19:06;97000;;;21.4;64.5
68628;BME280;55611;48.602;9.490;2022-10-16T08:21:37;97010;;;21.5;64.5
68628;BME280;55611;48.602;9.490;2022-10-16T08:24:07;97010;;;21.5;64.5
68628;BME280;55611;48.602;9.490;2022-10-16T08:26:38;97010;;;21.6;64
68628;BME280;55611;48.602;9.490;2022-10-16T08:29:08;97010;;;21.6;64.5
68628;BME280;55611;48.602;9.490;2022-10-16T08:31:39;97010;;;21.6;64.5
68628;BME280;55611;48.602;9.490;2022-10-16T08:34:09;97010;;;21.7;64.5
68628;BME280;55611;48.602;9.490;2022-10-16T08:36:40;97020;;;21.8;64.5
68628;BME280;55611;48.602;9.490;2022-10-16T08:39:10;97020;;;21.8;64.5
68628;BME280;55611;48.602;9.490;2022-10-16T08:41:50;97030;;;21.9;64
68628;BME280;55611;48.602;9.490;2022-10-16T08:44:23;97030;;;21.9;64.5
68628;BME280;55611;48.602;9.490;2022-10-16T08:46:46;97030;;;22;64
68628;BME280;55611;48.602;9.490;2022-10-16T08:49:13;97030;;;22.1;64
68628;BME280;55611;48.602;9.490;2022-10-16T08:51:43;97030;;;22.2;64
68628;BME280;55611;48.602;9.490;2022-10-16T08:54:19;97030;;;22.2;64
68628;BME280;55611;48.602;9.490;2022-10-16T08:56:44;97030;;;22.1;64
68628;BME280;55611;48.602;9.490;2022-10-16T08:59:14;97040;;;21.9;64
68628;BME280;55611;48.602;9.490;2022-10-16T09:01:45;97030;;;21.9;64
68628;BME280;55611;48.602;9.490;2022-10-16T09:04:23;97040;;;22;64
68628;BME280;55611;48.602;9.490;2022-10-16T09:06:47;97050;;;22.1;64
68628;BME280;55611;48.602;9.490;2022-10-16T09:09:21;97040;;;22.2;64
68628;BME280;55611;48.602;9.490;2022-10-16T09:11:50;97050;;;22.3;64
68628;BME280;55611;48.602;9.490;2022-10-16T09:14:51;97040;;;22.3;64
68628;BME280;55611;48.602;9.490;2022-10-16T09:16:50;97050;;;22.3;64
68628;BME280;55611;48.602;9.490;2022-10-16T09:19:51;97060;;;22.3;64
68628;BME280;55611;48.602;9.490;2022-10-16T09:21:49;97060;;;22.4;64
68628;BME280;55611;48.602;9.490;2022-10-16T09:24:21;97060;;;22.3;64
68628;BME280;55611;48.602;9.490;2022-10-16T09:26:50;97060;;;22.4;64
68628;BME280;55611;48.602;9.490;2022-10-16T09:29:21;97070;;;22.5;64
68628;BME280;55611;48.602;9.490;2022-10-16T09:31:52;97070;;;22.6;64
68628;BME280;55611;48.602;9.490;2022-10-16T09:34:25;97080;;;22.7;64
68628;BME280;55611;48.602;9.490;2022-10-16T09:36:52;97080;;;22.8;64
68628;BME280;55611;48.602;9.490;2022-10-16T09:39:23;97080;;;22.9;64
68628;BME280;55611;48.602;9.490;2022-10-16T09:41:53;97080;;;23;64
68628;BME280;55611;48.602;9.490;2022-10-16T09:44:24;97080;;;23;64
68628;BME280;55611;48.602;9.490;2022-10-16T09:47:02;97080;;;23;64
68628;BME280;55611;48.602;9.490;2022-10-16T09:49:25;97080;;;22.9;64
68628;BME280;55611;48.602;9.490;2022-10-16T09:52:03;97080;;;22.7;64
68628;BME280;55611;48.602;9.490;2022-10-16T09:54:26;97070;;;22.7;64
68628;BME280;55611;48.602;9.490;2022-10-16T09:57:04;97070;;;22.8;64
68628;BME280;55611;48.602;9.490;2022-10-16T09:59:27;97070;;;22.8;64
68628;BME280;55611;48.602;9.490;2022-10-16T10:02:00;97070;;;22.7;64
68628;BME280;55611;48.602;9.490;2022-10-16T10:04:36;97070;;;22.8;64
68628;BME280;55611;48.602;9.490;2022-10-16T10:06:58;97080;;;22.7;64
68628;BME280;55611;48.602;9.490;2022-10-16T10:09:31;97080;;;22.8;64
68628;BME280;55611;48.602;9.490;2022-10-16T10:12:00;97080;;;22.9;64
68628;BME280;55611;48.602;9.490;2022-10-16T10:14:32;97080;;;22.9;64
68628;BME280;55611;48.602;9.490;2022-10-16T10:17:07;97080;;;22.9;64
68628;BME280;55611;48.602;9.490;2022-10-16T10:19:39;97080;;;22.8;64
68628;BME280;55611;48.602;9.490;2022-10-16T10:22:01;97080;;;22.8;64
68628;BME280;55611;48.602;9.490;2022-10-16T10:24:32;97080;;;22.7;64
68628;BME280;55611;48.602;9.490;2022-10-16T10:27:05;97080;;;22.7;64
68628;BME280;55611;48.602;9.490;2022-10-16T10:29:37;97080;;;22.7;64
68628;BME280;55611;48.602;9.490;2022-10-16T10:32:08;97080;;;22.8;63.5
68628;BME280;55611;48.602;9.490;2022-10-16T10:35:41;97070;;;22.8;64
68628;BME280;55611;48.602;9.490;2022-10-16T10:37:09;97070;;;22.9;64
68628;BME280;55611;48.602;9.490;2022-10-16T10:39:38;97070;;;22.8;64
68628;BME280;55611;48.602;9.490;2022-10-16T10:42:15;97070;;;22.9;64
68628;BME280;55611;48.602;9.490;2022-10-16T10:44:46;97070;;;22.9;63.5
68628;BME280;55611;48.602;9.490;2022-10-16T10:47:12;97080;;;22.9;63.5
68628;BME280;55611;48.602;9.490;2022-10-16T10:52:41;97080;;;22.8;63.5
68628;BME280;55611;48.602;9.490;2022-10-16T10:57:15;97080;;;22.8;63.5
68628;BME280;55611;48.602;9.490;2022-10-16T10:59:46;97080;;;22.9;63.5
68628;BME280;55611;48.602;9.490;2022-10-16T11:02:14;97070;;;22.8;63.5
68628;BME280;55611;48.602;9.490;2022-10-16T11:04:50;97080;;;22.9;63.5
68628;BME280;55611;48.602;9.490;2022-10-16T11:07:14;97080;;;22.9;63.5
68628;BME280;55611;48.602;9.490;2022-10-16T11:09:43;97080;;;23.1;63.5
68628;BME280;55611;48.602;9.490;2022-10-16T11:12:14;97080;;;23.2;63.5
68628;BME280;55611;48.602;9.490;2022-10-16T11:14:45;97080;;;23.4;63.5
68628;BME280;55611;48.602;9.490;2022-10-16T11:17:18;97080;;;23.5;63.5
68628;BME280;55611;48.602;9.490;2022-10-16T11:19:48;97080;;;23.7;63.5
68628;BME280;55611;48.602;9.490;2022-10-16T11:22:23;97080;;;23.8;63.5
68628;BME280;55611;48.602;9.490;2022-10-16T11:24:47;97080;;;23.7;63
68628;BME280;55611;48.602;9.490;2022-10-16T11:27:16;97080;;;23.6;63
68628;BME280;55611;48.602;9.490;2022-10-16T11:29:49;97080;;;23.7;63
68628;BME280;55611;48.602;9.490;2022-10-16T11:32:24;97080;;;23.6;63
68628;BME280;55611;48.602;9.490;2022-10-16T11:34:49;97090;;;23.6;63
68628;BME280;55611;48.602;9.490;2022-10-16T11:37:19;97090;;;23.7;63
68628;BME280;55611;48.602;9.490;2022-10-16T11:39:47;97080;;;23.7;63
68628;BME280;55611;48.602;9.490;2022-10-16T11:42:19;97070;;;23.9;63
68628;BME280;55611;48.602;9.490;2022-10-16T11:44:51;97070;;;24.1;63
68628;BME280;55611;48.602;9.490;2022-10-16T11:47:23;97070;;;24.2;63.5
68628;BME280;55611;48.602;9.490;2022-10-16T11:49:50;97070;;;24.3;63.5
68628;BME280;55611;48.602;9.490;2022-10-16T11:52:23;97070;;;24.4;63.5
68628;BME280;55611;48.602;9.490;2022-10-16T11:54:52;97070;;;24.5;63
68628;BME280;55611;48.602;9.490;2022-10-16T11:57:23;97070;;;24.6;63
68628;BME280;55611;48.602;9.490;2022-10-16T11:59:55;97070;;;24.7;63.5
68628;BME280;55611;48.602;9.490;2022-10-16T12:02:28;97070;;;24.7;63
68628;BME280;55611;48.602;9.490;2022-10-16T12:04:56;97060;;;24.7;63
68628;BME280;55611;48.602;9.490;2022-10-16T12:07:24;97060;;;24.7;63
68628;BME280;55611;48.602;9.490;2022-10-16T12:09:54;97060;;;24.7;63
68628;BME280;55611;48.602;9.490;2022-10-16T12:12:39;97060;;;24.7;63
68628;BME280;55611;48.602;9.490;2022-10-16T12:15:15;97060;;;24.6;63
68628;BME280;55611;48.602;9.490;2022-10-16T12:17:27;97060;;;24.7;63
68628;BME280;55611;48.602;9.490;2022-10-16T12:19:57;97060;;;24.6;63
68628;BME280;55611;48.602;9.490;2022-10-16T12:22:29;97060;;;24.6;63
68628;BME280;55611;48.602;9.490;2022-10-16T12:24:57;97060;;;24.6;63
68628;BME280;55611;48.602;9.490;2022-10-16T12:27:29;97070;;;24.6;63
68628;BME280;55611;48.602;9.490;2022-10-16T12:30:02;97070;;;24.6;63
68628;BME280;55611;48.602;9.490;2022-10-16T12:32:32;97070;;;24.6;63
68628;BME280;55611;48.602;9.490;2022-10-16T12:34:59;97070;;;24.6;63
68628;BME280;55611;48.602;9.490;2022-10-16T12:37:31;97070;;;24.6;63
68628;BME280;55611;48.602;9.490;2022-10-16T12:40:10;97070;;;24.6;63
68628;BME280;55611;48.602;9.490;2022-10-16T12:42:32;97070;;;24.7;63
68628;BME280;55611;48.602;9.490;2022-10-16T12:45:01;97070;;;24.6;63
68628;BME280;55611;48.602;9.490;2022-10-16T12:47:36;97070;;;24.7;63
68628;BME280;55611;48.602;9.490;2022-10-16T12:50:02;97070;;;24.8;63
68628;BME280;55611;48.602;9.490;2022-10-16T12:52:35;97070;;;24.8;63
68628;BME280;55611;48.602;9.490;2022-10-16T12:55:03;97080;;;24.9;63
68628;BME280;55611;48.602;9.490;2022-10-16T12:57:44;97080;;;24.9;63
68628;BME280;55611;48.602;9.490;2022-10-16T13:00:09;97080;;;24.9;63
68628;BME280;55611;48.602;9.490;2022-10-16T13:02:47;97080;;;24.9;63
68628;BME280;55611;48.602;9.490;2022-10-16T13:07:46;97080;;;24.9;62.5
68628;BME280;55611;48.602;9.490;2022-10-16T13:12:42;97080;;;24.8;63
68628;BME280;55611;48.602;9.490;2022-10-16T13:15:25;97080;;;24.9;63
68628;BME280;55611;48.602;9.490;2022-10-16T13:17:47;97080;;;25;63
68628;BME280;55611;48.602;9.490;2022-10-16T13:20:27;97080;;;25.1;63
68628;BME280;55611;48.602;9.490;2022-10-16T13:22:41;97080;;;25.3;63
68628;BME280;55611;48.602;9.490;2022-10-16T13:25:28;97080;;;25.5;63
68628;BME280;55611;48.602;9.490;2022-10-16T13:27:44;97070;;;25.5;63
68628;BME280;55611;48.602;9.490;2022-10-16T13:30:13;97080;;;25.5;63
68628;BME280;55611;48.602;9.490;2022-10-16T13:32:43;97080;;;25.5;62.5
68628;BME280;55611;48.602;9.490;2022-10-16T13:35:18;97080;;;25.4;62.5
68628;BME280;55611;48.602;9.490;2022-10-16T13:37:42;97080;;;25.4;62.5
68628;BME280;55611;48.602;9.490;2022-10-16T13:40:18;97080;;;25.4;62.5
68628;BME280;55611;48.602;9.490;2022-10-16T13:42:43;97090;;;25.4;62.5
68628;BME280;55611;48.602;9.490;2022-10-16T13:45:17;97080;;;25.3;62.5
68628;BME280;55611;48.602;9.490;2022-10-16T13:47:44;97080;;;25.3;62.5
68628;BME280;55611;48.602;9.490;2022-10-16T13:50:15;97080;;;25.3;62.5
68628;BME280;55611;48.602;9.490;2022-10-16T13:52:45;97080;;;25.2;62.5
68628;BME280;55611;48.602;9.490;2022-10-16T13:55:16;97080;;;25.1;62.5
68628;BME280;55611;48.602;9.490;2022-10-16T13:57:46;97080;;;25.1;62
68628;BME280;55611;48.602;9.490;2022-10-16T14:00:17;97090;;;25.1;62
68628;BME280;55611;48.602;9.490;2022-10-16T14:02:50;97080;;;25.2;62
68628;BME280;55611;48.602;9.490;2022-10-16T14:05:17;97090;;;25.1;62.5
68628;BME280;55611;48.602;9.490;2022-10-16T14:07:49;97080;;;25.2;62.5
68628;BME280;55611;48.602;9.490;2022-10-16T14:10:33;97080;;;25.2;62
68628;BME280;55611;48.602;9.490;2022-10-16T14:12:57;97080;;;25.2;62
68628;BME280;55611;48.602;9.490;2022-10-16T14:15:19;97090;;;25.2;62
68628;BME280;55611;48.602;9.490;2022-10-16T14:17:50;97090;;;25.2;62.5
68628;BME280;55611;48.602;9.490;2022-10-16T14:20:22;97090;;;25.2;62.5
68628;BME280;55611;48.602;9.490;2022-10-16T14:22:58;97090;;;25.2;62.5
68628;BME280;55611;48.602;9.490;2022-10-16T14:25:26;97090;;;25.2;62.5
68628;BME280;55611;48.602;9.490;2022-10-16T14:30:23;97090;;;25.2;62.5
68628;BME280;55611;48.602;9.490;2022-10-16T14:32:56;97090;;;25.1;62.5
68628;BME280;55611;48.602;9.490;2022-10-16T14:35:26;97090;;;25.2;62.5
68628;BME280;55611;48.602;9.490;2022-10-16T14:37:54;97090;;;25.2;62.5
68628;BME280;55611;48.602;9.490;2022-10-16T14:40:25;97090;;;25.2;62.5
68628;BME280;55611;48.602;9.490;2022-10-16T14:42:55;97090;;;25.2;62.5
68628;BME280;55611;48.602;9.490;2022-10-16T14:45:27;97090;;;25.2;62.5
68628;BME280;55611;48.602;9.490;2022-10-16T14:47:57;97100;;;25.2;62.5
68628;BME280;55611;48.602;9.490;2022-10-16T14:50:27;97090;;;25.1;62.5